• Join FlightAware (Why Join?)
  • Login
  • US Flag 
11:48AM EST


 

Airport Tracker/Info


-or-


 

Live Flight TrackerFlight Track Log ✈ DAL6057 ✈ 18-Apr-2013 ✈ KCMH - KDTW

Flight Track Log - Related Links

Times and Time Zones

All times are in EDT time to prevent confusion due to time zone crossing. See the DAL6057 flight status page for this flight to view local times or setup timezone preferences in your user account.

Time Position Orientation Groundspeed Altitude Reporting Facility
EDT Latitude Longitude Course Direction KTS MPH feet Rate Location/Type
06:38AM 40.0008 -82.8747 85° East 134 154 1,300  Level Indianapolis Center
06:40AM 40.0064 -82.7881 85° East 239 275 3,200 1,860 Climbing Indianapolis Center
06:41AM 40.0336 -82.6986 68° East 264 304 5,700 2,100 Climbing Indianapolis Center
06:42AM 40.1131 -82.6783 11° North 289 333 7,900 2,160 Climbing Indianapolis Center
06:43AM 40.1939 -82.6528 14° North 295 339 10,100 1,920 Climbing Indianapolis Center
06:44AM 40.2831 -82.6186 16° North 324 373 11,800 1,320 Climbing Indianapolis Center
06:45AM 40.3808 -82.5775 18° North 362 417 12,800 1,200 Climbing Indianapolis Center
06:46AM 40.4842 -82.5336 18° North 385 443 14,300 1,380 Climbing Indianapolis Center
06:47AM 40.5897 -82.4897 18° North 393 452 15,700 1,260 Climbing Indianapolis Center
06:48AM 40.6950 -82.4444 18° North 396 456 16,900 600 Climbing Indianapolis Center
06:49AM 40.8075 -82.3967 18° North 417 480 17,000  Climbing Indianapolis Center
06:50AM 40.9231 -82.4169 352° North 414 476 17,000  Level Indianapolis Center
06:51AM 41.0328 -82.4644 342° North 410 472 17,000  Level Indianapolis Center
06:52AM 41.1403 -82.5128 341° North 403 464 17,000 -120 Level Indianapolis Center
06:52AM 41.1736 -82.5300 339° North 408 470 16,900 -180 Descending FAA TRACON SMA TRACON (SMA)
06:52AM 41.1947 -82.5386 343° North 402 463 16,900  Level FAA TRACON SMA TRACON (SMA)
06:53AM 41.2372 -82.5575 342° North 404 465 16,900  Level FAA TRACON SMA TRACON (SMA)
06:53AM 41.2794 -82.5769 341° North 404 465 16,900  Level FAA TRACON SMA TRACON (SMA)
06:53AM 41.3008 -82.5858 343° North 403 464 16,900  Level FAA TRACON SMA TRACON (SMA)
06:54AM 41.3439 -82.6050 342° North 405 466 16,900  Level FAA TRACON SMA TRACON (SMA)
06:54AM 41.3869 -82.6247 341° North 407 468 16,900 -300 Level FAA TRACON SMA TRACON (SMA)
06:54AM 41.4294 -82.6433 342° North 413 475 16,700 -1,080 Descending FAA TRACON SMA TRACON (SMA)
06:55AM 41.4631 -82.6592 341° North 416 479 16,200 -1,680 Descending FAA TRACON SMA TRACON (SMA)
06:55AM 41.4969 -82.6744 341° North 418 481 15,600 -2,100 Descending FAA TRACON SMA TRACON (SMA)
06:55AM 41.5386 -82.6950 340° North 416 479 14,800 -2,100 Descending FAA TRACON SMA TRACON (SMA)
06:56AM 41.5719 -82.7106 341° North 414 476 14,200 -2,100 Descending FAA TRACON SMA TRACON (SMA)
06:56AM 41.6061 -82.7244 343° North 416 479 13,400 -2,580 Descending FAA TRACON SMA TRACON (SMA)
06:56AM 41.6478 -82.7436 341° North 414 476 12,500 -1,980 Descending FAA TRACON SMA TRACON (SMA)
06:57AM 41.6808 -82.7589 341° North 411 473 12,100 -780 Descending FAA TRACON SMA TRACON (SMA)
06:57AM 41.7125 -82.7753 339° North 397 457 12,000 -180 Descending FAA TRACON SMA TRACON (SMA)
06:57AM 41.7461 -82.8058 326° Northwest 381 438 12,000  Level FAA TRACON SMA TRACON (SMA)
06:58AM 41.7703 -82.8333 320° Northwest 373 429 12,000  Level FAA TRACON SMA TRACON (SMA)
06:58AM 41.7947 -82.8614 319° Northwest 374 430 12,000  Level FAA TRACON SMA TRACON (SMA)
06:58AM 41.8186 -82.8900 318° Northwest 375 432 12,000  Level FAA TRACON SMA TRACON (SMA)
06:59AM 41.8486 -82.9264 318° Northwest 378 435 12,000  Level FAA TRACON SMA TRACON (SMA)
06:59AM 41.8733 -82.9553 319° Northwest 380 437 12,000  Level FAA TRACON SMA TRACON (SMA)
06:59AM 41.9033 -82.9922 317° Northwest 381 438 12,000  Level FAA TRACON SMA TRACON (SMA)
07:00AM 41.9281 -83.0214 319° Northwest 383 441 12,000  Level FAA TRACON SMA TRACON (SMA)
07:00AM 41.9528 -83.0508 318° Northwest 384 442 12,000  Level FAA TRACON SMA TRACON (SMA)
07:00AM 41.9828 -83.0869 318° Northwest 379 436 12,000  Level FAA TRACON SMA TRACON (SMA)
07:01AM 42.0028 -83.1147 314° West 340 391 12,000  Level Cleveland Center
07:02AM 42.0578 -83.1786 319° Northwest 258 297 12,000 -360 Level Cleveland Center
07:03AM 42.1333 -83.2097 343° North 299 344 11,300 -900 Descending FAA TRACON SMA TRACON (SMA)
07:03AM 42.1592 -83.2089 North 303 349 10,800 -1,500 Descending FAA TRACON SMA TRACON (SMA)
07:03AM 42.1908 -83.2072 North 299 344 10,300 -1,380 Descending FAA TRACON SMA TRACON (SMA)
07:04AM 42.2156 -83.2056 North 294 338 9,900 -1,200 Descending FAA TRACON SMA TRACON (SMA)
07:04AM 42.2386 -83.1931 22° Northeast 296 341 9,500 -1,380 Descending FAA TRACON SMA TRACON (SMA)
07:04AM 42.2669 -83.1744 26° Northeast 304 350 9,000 -1,260 Descending FAA TRACON SMA TRACON (SMA)
07:05AM 42.2889 -83.1594 27° Northeast 290 334 8,600 -1,260 Descending FAA TRACON SMA TRACON (SMA)
07:05AM 42.3158 -83.1422 25° Northeast 281 323 8,100 -1,620 Descending FAA TRACON SMA TRACON (SMA)
07:06AM 42.3372 -83.1289 25° Northeast 277 319 7,500 -1,860 Descending FAA TRACON SMA TRACON (SMA)
07:06AM 42.3642 -83.1133 23° Northeast 278 320 6,900 -1,680 Descending FAA TRACON SMA TRACON (SMA)
07:06AM 42.3814 -83.1142 358° North 271 312 6,500 -1,860 Descending FAA TRACON SMA TRACON (SMA)
07:06AM 42.4011 -83.1344 323° Northwest 234 269 5,800 -1,680 Descending FAA TRACON SMA TRACON (SMA)
07:07AM 42.4092 -83.1614 292° West 208 239 5,400 -1,080 Descending FAA TRACON SMA TRACON (SMA)
07:07AM 42.4114 -83.1844 277° West 203 234 5,100 -780 Descending FAA TRACON SMA TRACON (SMA)
07:07AM 42.4044 -83.2075 248° West 186 214 4,900 -900 Descending FAA TRACON SMA TRACON (SMA)
07:08AM 42.3986 -83.2275 248° West 185 213 4,500 -1,680 Descending FAA TRACON SMA TRACON (SMA)
07:08AM 42.3878 -83.2475 234° Southwest 181 208 3,800 -1,500 Descending FAA TRACON SMA TRACON (SMA)
07:08AM 42.3750 -83.2564 207° Southwest 179 206 3,500 -1,080 Descending FAA TRACON SMA TRACON (SMA)
07:09AM 42.3589 -83.2683 209° Southwest 170 196 3,100 -780 Descending FAA TRACON SMA TRACON (SMA)
07:09AM 42.3478 -83.2767 209° Southwest 157 181 3,000 -180 Descending FAA TRACON SMA TRACON (SMA)
07:09AM 42.3356 -83.2858 209° Southwest 132 152 3,000 -180 Level FAA TRACON SMA TRACON (SMA)
07:10AM 42.3267 -83.2922 208° Southwest 121 139 2,900 -480 Descending FAA TRACON SMA TRACON (SMA)
07:10AM 42.3158 -83.3003 209° Southwest 121 139 2,700 -600 Descending FAA TRACON SMA TRACON (SMA)
07:11AM 42.3069 -83.3067 208° Southwest 120 138 2,500 -600 Descending FAA TRACON SMA TRACON (SMA)
07:11AM 42.2972 -83.3139 209° Southwest 103 119 2,300 -480 Descending FAA TRACON SMA TRACON (SMA)
07:11AM 42.2911 -83.3178 205° Southwest 99 114 2,200 -480 Descending FAA TRACON SMA TRACON (SMA)
07:11AM 42.2819 -83.3258 213° Southwest 95 109 2,000 -600 Descending FAA TRACON SMA TRACON (SMA)